sensor_id;sensor_type;location;lat;lon;timestamp;pressure;altitude;pressure_sealevel;temperature;humidity
59789;BME280;47353;51.614;5.530;2023-05-23T00:02:22;101744.81;;;15.04;93.83
59789;BME280;47353;51.614;5.530;2023-05-23T00:04:47;101736.16;;;15.06;93.06
59789;BME280;47353;51.614;5.530;2023-05-23T00:07:13;101736.94;;;15.12;92.59
59789;BME280;47353;51.614;5.530;2023-05-23T00:09:38;101740.59;;;15.12;92.15
59789;BME280;47353;51.614;5.530;2023-05-23T00:12:04;101727.22;;;15.04;91.69
59789;BME280;47353;51.614;5.530;2023-05-23T00:14:29;101745.03;;;15.13;91.36
59789;BME280;47353;51.614;5.530;2023-05-23T00:16:58;101746.16;;;15.12;90.48
59789;BME280;47353;51.614;5.530;2023-05-23T00:19:24;101746.72;;;15.14;90.41
59789;BME280;47353;51.614;5.530;2023-05-23T00:21:50;101745.03;;;15.13;90.49
59789;BME280;47353;51.614;5.530;2023-05-23T00:24:18;101748.09;;;15.12;90.78
59789;BME280;47353;51.614;5.530;2023-05-23T00:26:45;101748.38;;;15.15;90.50
59789;BME280;47353;51.614;5.530;2023-05-23T00:29:10;101747.53;;;15.15;90.46
59789;BME280;47353;51.614;5.530;2023-05-23T00:31:43;101758.41;;;15.16;90.24
59789;BME280;47353;51.614;5.530;2023-05-23T00:34:14;101750.59;;;15.18;90.27
59789;BME280;47353;51.614;5.530;2023-05-23T00:36:42;101769.56;;;15.16;89.89
59789;BME280;47353;51.614;5.530;2023-05-23T00:39:08;101767.63;;;15.17;89.86
59789;BME280;47353;51.614;5.530;2023-05-23T00:41:41;101765.41;;;15.14;89.37
59789;BME280;47353;51.614;5.530;2023-05-23T00:44:06;101763.75;;;15.07;89.25
59789;BME280;47353;51.614;5.530;2023-05-23T00:46:34;101771.84;;;15.09;89.70
59789;BME280;47353;51.614;5.530;2023-05-23T00:49:00;101772.97;;;15.08;89.60
59789;BME280;47353;51.614;5.530;2023-05-23T00:51:25;101770.16;;;15.08;89.46
59789;BME280;47353;51.614;5.530;2023-05-23T00:53:51;101770.75;;;15.05;89.22
59789;BME280;47353;51.614;5.530;2023-05-23T00:56:17;101768.75;;;15.11;88.69
59789;BME280;47353;51.614;5.530;2023-05-23T00:58:43;101769.31;;;15.07;88.89
59789;BME280;47353;51.614;5.530;2023-05-23T01:01:08;101776.28;;;15.10;89.16
59789;BME280;47353;51.614;5.530;2023-05-23T01:03:34;101770.47;;;15.07;89.10
59789;BME280;47353;51.614;5.530;2023-05-23T01:06:00;101771.28;;;15.07;88.96
59789;BME280;47353;51.614;5.530;2023-05-23T01:08:27;101769.63;;;15.06;88.85
59789;BME280;47353;51.614;5.530;2023-05-23T01:10:53;101779.09;;;15.05;89.01
59789;BME280;47353;51.614;5.530;2023-05-23T01:13:40;101774.34;;;15.05;88.76
59789;BME280;47353;51.614;5.530;2023-05-23T01:18:47;101767.13;;;14.99;89.55
59789;BME280;47353;51.614;5.530;2023-05-23T01:21:16;101779.69;;;14.97;90.27
59789;BME280;47353;51.614;5.530;2023-05-23T01:27:00;101785.28;;;14.87;90.33
59789;BME280;47353;51.614;5.530;2023-05-23T01:29:42;101769.69;;;14.76;91.24
59789;BME280;47353;51.614;5.530;2023-05-23T01:32:11;101777.75;;;14.77;91.57
59789;BME280;47353;51.614;5.530;2023-05-23T01:34:37;101797.28;;;14.77;91.16
59789;BME280;47353;51.614;5.530;2023-05-23T01:37:07;101796.47;;;14.77;92.00
59789;BME280;47353;51.614;5.530;2023-05-23T01:39:33;101793.09;;;14.75;91.90
59789;BME280;47353;51.614;5.530;2023-05-23T01:41:58;101796.47;;;14.77;91.90
59789;BME280;47353;51.614;5.530;2023-05-23T01:44:23;101790.03;;;14.76;92.37
59789;BME280;47353;51.614;5.530;2023-05-23T01:46:49;101796.75;;;14.75;92.37
59789;BME280;47353;51.614;5.530;2023-05-23T01:49:15;101797.03;;;14.69;92.65
59789;BME280;47353;51.614;5.530;2023-05-23T01:51:42;101795.38;;;14.68;92.60
59789;BME280;47353;51.614;5.530;2023-05-23T01:54:08;101798.16;;;14.68;92.89
59789;BME280;47353;51.614;5.530;2023-05-23T01:56:34;101804.81;;;14.67;92.62
59789;BME280;47353;51.614;5.530;2023-05-23T01:58:59;101809.31;;;14.68;92.48
59789;BME280;47353;51.614;5.530;2023-05-23T02:01:26;101812.38;;;14.66;92.49
59789;BME280;47353;51.614;5.530;2023-05-23T02:03:51;101818.78;;;14.62;92.23
59789;BME280;47353;51.614;5.530;2023-05-23T02:06:17;101816.56;;;14.59;92.63
59789;BME280;47353;51.614;5.530;2023-05-23T02:08:42;101820.72;;;14.51;92.65
59789;BME280;47353;51.614;5.530;2023-05-23T02:11:08;101820.19;;;14.49;92.69
59789;BME280;47353;51.614;5.530;2023-05-23T02:13:34;101820.72;;;14.51;93.26
59789;BME280;47353;51.614;5.530;2023-05-23T02:16:00;101819.91;;;14.46;93.35
59789;BME280;47353;51.614;5.530;2023-05-23T02:18:25;101821.56;;;14.47;93.10
59789;BME280;47353;51.614;5.530;2023-05-23T02:20:53;101824.38;;;14.42;93.33
59789;BME280;47353;51.614;5.530;2023-05-23T02:23:20;101823.78;;;14.40;93.45
59789;BME280;47353;51.614;5.530;2023-05-23T02:25:45;101831.28;;;14.34;93.59
59789;BME280;47353;51.614;5.530;2023-05-23T02:28:11;101825.72;;;14.34;93.77
59789;BME280;47353;51.614;5.530;2023-05-23T02:30:37;101830.75;;;14.32;93.77
59789;BME280;47353;51.614;5.530;2023-05-23T02:33:06;101829.34;;;14.30;93.49
59789;BME280;47353;51.614;5.530;2023-05-23T02:35:32;101832.13;;;14.30;93.67
59789;BME280;47353;51.614;5.530;2023-05-23T02:37:58;101823.78;;;14.30;93.55
59789;BME280;47353;51.614;5.530;2023-05-23T02:40:24;101825.75;;;14.29;93.72
59789;BME280;47353;51.614;5.530;2023-05-23T02:42:49;101827.13;;;14.27;93.99
59789;BME280;47353;51.614;5.530;2023-05-23T02:45:16;101822.69;;;14.26;94.19
59789;BME280;47353;51.614;5.530;2023-05-23T02:47:41;101825.72;;;14.24;94.06
59789;BME280;47353;51.614;5.530;2023-05-23T02:50:07;101816.78;;;14.17;94.11
59789;BME280;47353;51.614;5.530;2023-05-23T02:52:33;101831.84;;;14.21;94.25
59789;BME280;47353;51.614;5.530;2023-05-23T02:54:58;101823.19;;;14.18;94.24
59789;BME280;47353;51.614;5.530;2023-05-23T02:57:24;101819.56;;;14.12;93.98
59789;BME280;47353;51.614;5.530;2023-05-23T02:59:49;101827.63;;;14.09;94.64
59789;BME280;47353;51.614;5.530;2023-05-23T03:02:15;101829.56;;;14.08;94.39
59789;BME280;47353;51.614;5.530;2023-05-23T03:04:40;101824.56;;;14.05;94.55
59789;BME280;47353;51.614;5.530;2023-05-23T03:07:06;101822.91;;;14.04;94.82
59789;BME280;47353;51.614;5.530;2023-05-23T03:09:32;101826.81;;;14.03;95.02
59789;BME280;47353;51.614;5.530;2023-05-23T03:11:57;101826.78;;;14.08;95.46
59789;BME280;47353;51.614;5.530;2023-05-23T03:14:23;101826.53;;;14.05;95.34
59789;BME280;47353;51.614;5.530;2023-05-23T03:16:48;101831.81;;;14.06;95.78
59789;BME280;47353;51.614;5.530;2023-05-23T03:19:13;101827.63;;;14.09;95.31
59789;BME280;47353;51.614;5.530;2023-05-23T03:21:39;101828.47;;;14.09;95.55
59789;BME280;47353;51.614;5.530;2023-05-23T03:24:05;101832.63;;;14.07;95.39
59789;BME280;47353;51.614;5.530;2023-05-23T03:26:31;101830.69;;;14.07;95.45
59789;BME280;47353;51.614;5.530;2023-05-23T03:28:56;101830.13;;;14.05;95.51
59789;BME280;47353;51.614;5.530;2023-05-23T03:31:22;101841.84;;;14.07;95.42
59789;BME280;47353;51.614;5.530;2023-05-23T03:33:47;101843.53;;;14.18;96.99
59789;BME280;47353;51.614;5.530;2023-05-23T03:36:12;101836.88;;;14.24;97.44
59789;BME280;47353;51.614;5.530;2023-05-23T03:38:39;101841.59;;;14.24;97.23
59789;BME280;47353;51.614;5.530;2023-05-23T03:41:04;101839.38;;;14.26;96.86
59789;BME280;47353;51.614;5.530;2023-05-23T03:43:30;101844.97;;;14.31;96.72
59789;BME280;47353;51.614;5.530;2023-05-23T03:45:55;101839.94;;;14.38;96.74
59789;BME280;47353;51.614;5.530;2023-05-23T03:48:20;101844.97;;;14.31;96.15
59789;BME280;47353;51.614;5.530;2023-05-23T03:50:46;101854.44;;;14.35;95.97
59789;BME280;47353;51.614;5.530;2023-05-23T03:53:11;101851.06;;;14.33;95.52
59789;BME280;47353;51.614;5.530;2023-05-23T03:55:38;101852.47;;;14.30;96.01
59789;BME280;47353;51.614;5.530;2023-05-23T03:58:03;101857.22;;;14.35;95.96
59789;BME280;47353;51.614;5.530;2023-05-23T04:00:28;101861.41;;;14.32;96.05
59789;BME280;47353;51.614;5.530;2023-05-23T04:02:54;101860.00;;;14.35;96.40
59789;BME280;47353;51.614;5.530;2023-05-23T04:05:20;101853.03;;;14.32;96.11
59789;BME280;47353;51.614;5.530;2023-05-23T04:07:45;101858.31;;;14.29;96.00
59789;BME280;47353;51.614;5.530;2023-05-23T04:10:11;101866.97;;;14.32;96.14
59789;BME280;47353;51.614;5.530;2023-05-23T04:12:36;101863.06;;;14.38;96.12
59789;BME280;47353;51.614;5.530;2023-05-23T04:15:06;101871.97;;;14.35;95.99
59789;BME280;47353;51.614;5.530;2023-05-23T04:17:31;101869.47;;;14.29;95.44
59789;BME280;47353;51.614;5.530;2023-05-23T04:19:57;101864.47;;;14.31;95.50
59789;BME280;47353;51.614;5.530;2023-05-23T04:22:22;101870.84;;;14.36;95.53
59789;BME280;47353;51.614;5.530;2023-05-23T04:24:48;101869.19;;;14.30;95.01
59789;BME280;47353;51.614;5.530;2023-05-23T04:27:13;101867.25;;;14.46;95.46
59789;BME280;47353;51.614;5.530;2023-05-23T04:29:39;101871.44;;;14.38;95.08
59789;BME280;47353;51.614;5.530;2023-05-23T04:32:05;101876.44;;;14.36;95.15
59789;BME280;47353;51.614;5.530;2023-05-23T04:34:31;101879.50;;;14.35;94.36
59789;BME280;47353;51.614;5.530;2023-05-23T04:37:00;101889.78;;;14.34;94.21
59789;BME280;47353;51.614;5.530;2023-05-23T04:39:28;101887.56;;;14.36;94.78
59789;BME280;47353;51.614;5.530;2023-05-23T04:41:54;101891.19;;;14.32;94.47
59789;BME280;47353;51.614;5.530;2023-05-23T04:44:21;101894.56;;;14.39;95.12
59789;BME280;47353;51.614;5.530;2023-05-23T04:46:46;101898.16;;;14.44;94.42
59789;BME280;47353;51.614;5.530;2023-05-23T04:49:12;101906.53;;;14.44;93.58
59789;BME280;47353;51.614;5.530;2023-05-23T04:51:38;101903.19;;;14.47;93.28
59789;BME280;47353;51.614;5.530;2023-05-23T04:54:04;101899.28;;;14.43;92.82
59789;BME280;47353;51.614;5.530;2023-05-23T04:56:29;101908.19;;;14.50;93.60
59789;BME280;47353;51.614;5.530;2023-05-23T04:58:55;101907.09;;;14.56;93.56
59789;BME280;47353;51.614;5.530;2023-05-23T05:01:21;101906.00;;;14.52;92.79
59789;BME280;47353;51.614;5.530;2023-05-23T05:03:50;101909.31;;;14.54;92.51
59789;BME280;47353;51.614;5.530;2023-05-23T05:06:16;101919.63;;;14.64;93.15
59789;BME280;47353;51.614;5.530;2023-05-23T05:08:42;101921.31;;;14.70;92.46
59789;BME280;47353;51.614;5.530;2023-05-23T05:11:08;101920.22;;;14.71;92.20
59789;BME280;47353;51.614;5.530;2023-05-23T05:13:34;101926.91;;;14.65;91.53
59789;BME280;47353;51.614;5.530;2023-05-23T05:15:59;101921.59;;;14.63;91.06
59789;BME280;47353;51.614;5.530;2023-05-23T05:18:25;101930.25;;;14.62;91.25
59789;BME280;47353;51.614;5.530;2023-05-23T05:20:51;101928.00;;;14.59;91.78
59789;BME280;47353;51.614;5.530;2023-05-23T05:23:17;101931.59;;;14.54;91.37
59789;BME280;47353;51.614;5.530;2023-05-23T05:25:43;101938.88;;;14.70;92.74
59789;BME280;47353;51.614;5.530;2023-05-23T05:28:08;101931.34;;;14.51;91.18
59789;BME280;47353;51.614;5.530;2023-05-23T05:30:34;101946.63;;;14.48;90.67
59789;BME280;47353;51.614;5.530;2023-05-23T05:33:00;101946.66;;;14.43;90.44
59789;BME280;47353;51.614;5.530;2023-05-23T05:35:29;101948.59;;;14.43;90.94
59789;BME280;47353;51.614;5.530;2023-05-23T05:37:55;101944.97;;;14.42;91.05
59789;BME280;47353;51.614;5.530;2023-05-23T05:40:20;101956.69;;;14.49;91.84
59789;BME280;47353;51.614;5.530;2023-05-23T05:42:45;101957.25;;;14.46;91.59
59789;BME280;47353;51.614;5.530;2023-05-23T05:45:11;101951.63;;;14.36;91.02
59789;BME280;47353;51.614;5.530;2023-05-23T05:47:36;101965.31;;;14.43;91.97
59789;BME280;47353;51.614;5.530;2023-05-23T05:50:04;101971.69;;;14.38;90.15
59789;BME280;47353;51.614;5.530;2023-05-23T05:52:30;101979.53;;;14.46;90.42
59789;BME280;47353;51.614;5.530;2023-05-23T05:54:55;101977.03;;;14.45;90.65
59789;BME280;47353;51.614;5.530;2023-05-23T05:57:22;101976.41;;;14.28;89.80
59789;BME280;47353;51.614;5.530;2023-05-23T05:59:47;101980.88;;;14.34;90.28
59789;BME280;47353;51.614;5.530;2023-05-23T06:02:12;101978.34;;;14.27;90.17
59789;BME280;47353;51.614;5.530;2023-05-23T06:04:38;101984.19;;;14.26;90.07
59789;BME280;47353;51.614;5.530;2023-05-23T06:07:03;101983.84;;;14.17;90.16
59789;BME280;47353;51.614;5.530;2023-05-23T06:09:29;101981.31;;;14.06;89.83
59789;BME280;47353;51.614;5.530;2023-05-23T06:11:55;101987.41;;;13.98;89.79
59789;BME280;47353;51.614;5.530;2023-05-23T06:14:20;101991.88;;;13.99;90.78
59789;BME280;47353;51.614;5.530;2023-05-23T06:16:45;101994.38;;;14.00;90.70
59789;BME280;47353;51.614;5.530;2023-05-23T06:19:11;101993.19;;;13.91;90.03
59789;BME280;47353;51.614;5.530;2023-05-23T06:21:36;101999.38;;;13.98;89.78
59789;BME280;47353;51.614;5.530;2023-05-23T06:24:01;102003.06;;;14.14;90.71
59789;BME280;47353;51.614;5.530;2023-05-23T06:26:27;102006.09;;;14.07;89.23
59789;BME280;47353;51.614;5.530;2023-05-23T06:28:52;102008.59;;;14.09;88.74
59789;BME280;47353;51.614;5.530;2023-05-23T06:31:18;102010.25;;;14.00;88.66
59789;BME280;47353;51.614;5.530;2023-05-23T06:33:43;102009.91;;;13.91;88.61
59789;BME280;47353;51.614;5.530;2023-05-23T06:36:08;102022.50;;;13.99;88.95
59789;BME280;47353;51.614;5.530;2023-05-23T06:38:34;102018.00;;;13.98;89.26
59789;BME280;47353;51.614;5.530;2023-05-23T06:40:59;102022.47;;;13.94;89.02
59789;BME280;47353;51.614;5.530;2023-05-23T06:43:25;102020.75;;;13.88;88.54
59789;BME280;47353;51.614;5.530;2023-05-23T06:45:51;102028.88;;;13.99;90.19
59789;BME280;47353;51.614;5.530;2023-05-23T06:48:16;102029.75;;;14.05;90.65
59789;BME280;47353;51.614;5.530;2023-05-23T06:50:42;102038.34;;;13.98;88.56
59789;BME280;47353;51.614;5.530;2023-05-23T06:53:07;102034.47;;;14.04;88.28
59789;BME280;47353;51.614;5.530;2023-05-23T06:55:33;102036.97;;;14.01;87.77
59789;BME280;47353;51.614;5.530;2023-05-23T06:57:59;102033.91;;;13.97;86.96
59789;BME280;47353;51.614;5.530;2023-05-23T07:00:25;102043.41;;;14.06;86.66
59789;BME280;47353;51.614;5.530;2023-05-23T07:02:50;102053.16;;;14.09;84.68
59789;BME280;47353;51.614;5.530;2023-05-23T07:05:16;102052.34;;;14.13;84.63
59789;BME280;47353;51.614;5.530;2023-05-23T07:07:41;102058.00;;;14.28;83.95
59789;BME280;47353;51.614;5.530;2023-05-23T07:10:07;102058.63;;;14.40;83.67
59789;BME280;47353;51.614;5.530;2023-05-23T07:12:33;102054.19;;;14.49;81.27
59789;BME280;47353;51.614;5.530;2023-05-23T07:14:58;102062.91;;;14.68;80.63
59789;BME280;47353;51.614;5.530;2023-05-23T07:17:24;102057.66;;;14.96;79.32
59789;BME280;47353;51.614;5.530;2023-05-23T07:19:50;102066.31;;;15.20;77.42
59789;BME280;47353;51.614;5.530;2023-05-23T07:22:15;102056.31;;;15.39;75.86
59789;BME280;47353;51.614;5.530;2023-05-23T07:24:40;102063.25;;;15.37;74.52
59789;BME280;47353;51.614;5.530;2023-05-23T07:27:06;102070.25;;;15.44;74.61
59789;BME280;47353;51.614;5.530;2023-05-23T07:29:31;102080.88;;;15.57;73.97
59789;BME280;47353;51.614;5.530;2023-05-23T07:31:57;102071.38;;;15.53;72.29
59789;BME280;47353;51.614;5.530;2023-05-23T07:34:23;102067.41;;;15.84;72.25
59789;BME280;47353;51.614;5.530;2023-05-23T07:36:49;102080.19;;;16.15;73.18
59789;BME280;47353;51.614;5.530;2023-05-23T07:39:14;102076.50;;;16.45;75.48
59789;BME280;47353;51.614;5.530;2023-05-23T07:41:45;102083.94;;;16.64;71.76
59789;BME280;47353;51.614;5.530;2023-05-23T07:44:11;102085.28;;;16.72;67.77
59789;BME280;47353;51.614;5.530;2023-05-23T07:46:36;102084.09;;;16.88;68.29
59789;BME280;47353;51.614;5.530;2023-05-23T07:49:02;102083.50;;;16.96;67.98
59789;BME280;47353;51.614;5.530;2023-05-23T07:51:27;102086.19;;;17.06;67.38
59789;BME280;47353;51.614;5.530;2023-05-23T07:53:52;102090.41;;;17.09;65.87
59789;BME280;47353;51.614;5.530;2023-05-23T07:56:18;102083.63;;;17.15;66.25
59789;BME280;47353;51.614;5.530;2023-05-23T07:58:43;102096.81;;;17.09;66.04
59789;BME280;47353;51.614;5.530;2023-05-23T08:01:08;102097.75;;;16.95;65.26
59789;BME280;47353;51.614;5.530;2023-05-23T08:03:34;102094.69;;;16.96;69.29
59789;BME280;47353;51.614;5.530;2023-05-23T08:05:59;102095.00;;;16.85;68.33
59789;BME280;47353;51.614;5.530;2023-05-23T08:08:25;102100.38;;;16.76;66.39
59789;BME280;47353;51.614;5.530;2023-05-23T08:10:50;102105.69;;;16.78;67.39
59789;BME280;47353;51.614;5.530;2023-05-23T08:13:15;102107.38;;;16.74;66.46
59789;BME280;47353;51.614;5.530;2023-05-23T08:15:42;102111.06;;;16.64;65.93
59789;BME280;47353;51.614;5.530;2023-05-23T08:18:07;102110.25;;;16.58;66.79
59789;BME280;47353;51.614;5.530;2023-05-23T08:20:33;102117.78;;;16.58;68.32
59789;BME280;47353;51.614;5.530;2023-05-23T08:22:59;102108.81;;;16.61;69.82
59789;BME280;47353;51.614;5.530;2023-05-23T08:25:26;102115.31;;;16.46;66.36
59789;BME280;47353;51.614;5.530;2023-05-23T08:27:56;102117.50;;;16.59;68.71
59789;BME280;47353;51.614;5.530;2023-05-23T08:30:22;102118.66;;;16.53;68.94
59789;BME280;47353;51.614;5.530;2023-05-23T08:32:52;102119.81;;;16.32;68.03
59789;BME280;47353;51.614;5.530;2023-05-23T08:35:19;102119.56;;;16.24;68.80
59789;BME280;47353;51.614;5.530;2023-05-23T08:37:45;102108.69;;;16.12;68.62
59789;BME280;47353;51.614;5.530;2023-05-23T08:40:18;102117.88;;;16.18;69.61
59789;BME280;47353;51.614;5.530;2023-05-23T08:42:46;102119.56;;;16.24;70.94
59789;BME280;47353;51.614;5.530;2023-05-23T08:45:11;102128.25;;;16.17;70.83
59789;BME280;47353;51.614;5.530;2023-05-23T08:47:38;102130.75;;;16.14;69.94
59789;BME280;47353;51.614;5.530;2023-05-23T08:50:07;102125.41;;;16.32;69.98
59789;BME280;47353;51.614;5.530;2023-05-23T08:52:36;102125.94;;;16.49;69.10
59789;BME280;47353;51.614;5.530;2023-05-23T08:55:05;102135.16;;;16.50;67.63
59789;BME280;47353;51.614;5.530;2023-05-23T08:57:31;102138.47;;;16.62;67.24
59789;BME280;47353;51.614;5.530;2023-05-23T08:59:58;102139.78;;;16.80;68.10
59789;BME280;47353;51.614;5.530;2023-05-23T09:02:25;102136.66;;;16.91;65.17
59789;BME280;47353;51.614;5.530;2023-05-23T09:04:50;102127.59;;;17.09;64.75
59789;BME280;47353;51.614;5.530;2023-05-23T09:07:17;102141.22;;;17.26;64.00
59789;BME280;47353;51.614;5.530;2023-05-23T09:09:43;102145.56;;;17.47;62.65
59789;BME280;47353;51.614;5.530;2023-05-23T09:12:09;102141.31;;;17.54;59.70
59789;BME280;47353;51.614;5.530;2023-05-23T09:14:34;102145.41;;;17.67;60.95
59789;BME280;47353;51.614;5.530;2023-05-23T09:17:01;102144.59;;;17.61;63.31
59789;BME280;47353;51.614;5.530;2023-05-23T09:19:27;102159.84;;;17.45;58.95
59789;BME280;47353;51.614;5.530;2023-05-23T09:21:53;102152.00;;;17.42;58.47
59789;BME280;47353;51.614;5.530;2023-05-23T09:24:19;102150.19;;;17.61;57.41
59789;BME280;47353;51.614;5.530;2023-05-23T09:26:48;102153.38;;;17.83;56.30
59789;BME280;47353;51.614;5.530;2023-05-23T09:29:18;102156.50;;;18.10;54.85
59789;BME280;47353;51.614;5.530;2023-05-23T09:31:44;102154.59;;;18.29;52.92
59789;BME280;47353;51.614;5.530;2023-05-23T09:34:09;102158.44;;;18.39;53.64
59789;BME280;47353;51.614;5.530;2023-05-23T09:36:35;102152.59;;;18.59;54.13
59789;BME280;47353;51.614;5.530;2023-05-23T09:39:02;102153.59;;;18.91;53.80
59789;BME280;47353;51.614;5.530;2023-05-23T09:41:33;102159.44;;;18.95;51.55
59789;BME280;47353;51.614;5.530;2023-05-23T09:44:04;102160.72;;;18.84;54.01
59789;BME280;47353;51.614;5.530;2023-05-23T09:46:30;102159.16;;;18.73;53.46
59789;BME280;47353;51.614;5.530;2023-05-23T09:48:55;102172.00;;;18.79;54.62
59789;BME280;47353;51.614;5.530;2023-05-23T09:51:22;102161.41;;;18.94;55.21
59789;BME280;47353;51.614;5.530;2023-05-23T09:53:50;102168.34;;;19.20;52.70
59789;BME280;47353;51.614;5.530;2023-05-23T09:56:18;102164.16;;;19.41;51.39
59789;BME280;47353;51.614;5.530;2023-05-23T09:58:46;102169.00;;;19.36;50.05
59789;BME280;47353;51.614;5.530;2023-05-23T10:01:12;102175.22;;;19.09;52.45
59789;BME280;47353;51.614;5.530;2023-05-23T10:06:11;102164.97;;;19.92;47.69
59789;BME280;47353;51.614;5.530;2023-05-23T10:08:46;102160.03;;;20.89;48.00
59789;BME280;47353;51.614;5.530;2023-05-23T10:13:44;102156.03;;;23.54;40.17
59789;BME280;47353;51.614;5.530;2023-05-23T10:16:18;102156.34;;;23.35;38.62
59789;BME280;47353;51.614;5.530;2023-05-23T10:18:44;102165.22;;;23.03;39.61
59789;BME280;47353;51.614;5.530;2023-05-23T10:21:18;102165.50;;;24.09;39.57
59789;BME280;47353;51.614;5.530;2023-05-23T10:23:45;102170.50;;;26.28;36.22
59789;BME280;47353;51.614;5.530;2023-05-23T10:26:12;102174.53;;;28.26;31.70
59789;BME280;47353;51.614;5.530;2023-05-23T10:28:39;102171.66;;;29.00;29.06
59789;BME280;47353;51.614;5.530;2023-05-23T10:31:05;102174.78;;;29.27;26.63
59789;BME280;47353;51.614;5.530;2023-05-23T10:33:34;102175.19;;;27.92;29.41
59789;BME280;47353;51.614;5.530;2023-05-23T10:36:08;102175.78;;;29.03;29.03
59789;BME280;47353;51.614;5.530;2023-05-23T10:38:48;102172.28;;;29.25;26.75
59789;BME280;47353;51.614;5.530;2023-05-23T10:41:26;102175.53;;;29.23;28.21
59789;BME280;47353;51.614;5.530;2023-05-23T10:47:00;102167.78;;;30.16;27.88
59789;BME280;47353;51.614;5.530;2023-05-23T10:50:01;102172.50;;;31.70;27.20
59789;BME280;47353;51.614;5.530;2023-05-23T10:52:38;102168.03;;;32.75;25.14
59789;BME280;47353;51.614;5.530;2023-05-23T10:55:12;102166.34;;;33.79;23.69
59789;BME280;47353;51.614;5.530;2023-05-23T10:57:37;102166.75;;;33.77;21.11
59789;BME280;47353;51.614;5.530;2023-05-23T11:00:03;102157.59;;;32.53;22.92
59789;BME280;47353;51.614;5.530;2023-05-23T11:02:29;102170.19;;;32.42;22.00
59789;BME280;47353;51.614;5.530;2023-05-23T11:05:30;102165.94;;;31.95;26.33
59789;BME280;47353;51.614;5.530;2023-05-23T11:08:23;102161.59;;;29.57;28.35
59789;BME280;47353;51.614;5.530;2023-05-23T11:10:58;102165.56;;;29.68;27.74
59789;BME280;47353;51.614;5.530;2023-05-23T11:13:24;102158.75;;;30.14;26.53
59789;BME280;47353;51.614;5.530;2023-05-23T11:15:50;102166.41;;;32.01;23.05
59789;BME280;47353;51.614;5.530;2023-05-23T11:18:21;102154.34;;;33.56;22.17
59789;BME280;47353;51.614;5.530;2023-05-23T11:20:49;102169.03;;;34.37;20.72
59789;BME280;47353;51.614;5.530;2023-05-23T11:23:15;102167.88;;;34.48;20.96
59789;BME280;47353;51.614;5.530;2023-05-23T11:25:51;102155.97;;;34.53;18.91
59789;BME280;47353;51.614;5.530;2023-05-23T11:28:18;102160.91;;;34.81;18.71
59789;BME280;47353;51.614;5.530;2023-05-23T11:30:47;102163.78;;;35.26;19.76
59789;BME280;47353;51.614;5.530;2023-05-23T11:33:14;102166.22;;;35.53;17.93
59789;BME280;47353;51.614;5.530;2023-05-23T11:35:42;102164.91;;;35.85;17.70
59789;BME280;47353;51.614;5.530;2023-05-23T11:38:09;102166.38;;;36.18;18.02
59789;BME280;47353;51.614;5.530;2023-05-23T11:40:38;102166.66;;;34.63;18.49
59789;BME280;47353;51.614;5.530;2023-05-23T11:43:05;102168.09;;;32.39;19.89
59789;BME280;47353;51.614;5.530;2023-05-23T11:45:32;102156.78;;;32.53;21.76
59789;BME280;47353;51.614;5.530;2023-05-23T11:48:07;102165.34;;;32.49;21.09
59789;BME280;47353;51.614;5.530;2023-05-23T11:50:33;102162.66;;;33.14;21.14
59789;BME280;47353;51.614;5.530;2023-05-23T11:52:59;102173.53;;;32.91;20.41
59789;BME280;47353;51.614;5.530;2023-05-23T11:55:24;102168.94;;;32.43;20.72
59789;BME280;47353;51.614;5.530;2023-05-23T11:57:50;102169.19;;;31.64;20.77
59789;BME280;47353;51.614;5.530;2023-05-23T12:00:17;102173.06;;;29.76;24.54
59789;BME280;47353;51.614;5.530;2023-05-23T12:02:44;102172.09;;;28.40;26.01
59789;BME280;47353;51.614;5.530;2023-05-23T12:05:13;102171.72;;;27.99;27.03
59789;BME280;47353;51.614;5.530;2023-05-23T12:07:46;102171.06;;;27.78;26.43
59789;BME280;47353;51.614;5.530;2023-05-23T12:10:14;102169.69;;;27.59;27.87
59789;BME280;47353;51.614;5.530;2023-05-23T12:12:41;102166.31;;;27.42;26.33
59789;BME280;47353;51.614;5.530;2023-05-23T12:15:08;102176.88;;;27.17;26.64
59789;BME280;47353;51.614;5.530;2023-05-23T12:17:35;102176.78;;;26.45;27.74
59789;BME280;47353;51.614;5.530;2023-05-23T12:20:01;102178.38;;;25.69;28.78
59789;BME280;47353;51.614;5.530;2023-05-23T12:22:28;102172.72;;;24.90;30.42
59789;BME280;47353;51.614;5.530;2023-05-23T12:24:54;102176.34;;;24.99;31.57
59789;BME280;47353;51.614;5.530;2023-05-23T12:27:26;102174.50;;;25.24;30.68
59789;BME280;47353;51.614;5.530;2023-05-23T12:30:03;102179.53;;;25.88;29.87
59789;BME280;47353;51.614;5.530;2023-05-23T12:32:28;102175.72;;;25.43;29.16
59789;BME280;47353;51.614;5.530;2023-05-23T12:34:54;102179.59;;;25.39;29.39
59789;BME280;47353;51.614;5.530;2023-05-23T12:37:20;102183.34;;;25.22;29.53
59789;BME280;47353;51.614;5.530;2023-05-23T12:39:46;102183.09;;;25.15;30.47
59789;BME280;47353;51.614;5.530;2023-05-23T12:42:11;102180.59;;;25.14;29.67
59789;BME280;47353;51.614;5.530;2023-05-23T12:44:39;102195.13;;;25.41;30.54
59789;BME280;47353;51.614;5.530;2023-05-23T12:47:05;102202.47;;;25.63;29.26
59789;BME280;47353;51.614;5.530;2023-05-23T12:49:31;102192.00;;;25.75;29.24
59789;BME280;47353;51.614;5.530;2023-05-23T12:51:56;102197.53;;;25.92;29.16
59789;BME280;47353;51.614;5.530;2023-05-23T12:54:22;102202.25;;;26.09;28.39
59789;BME280;47353;51.614;5.530;2023-05-23T12:56:47;102193.63;;;26.17;27.66
59789;BME280;47353;51.614;5.530;2023-05-23T12:59:13;102194.06;;;25.87;27.35
59789;BME280;47353;51.614;5.530;2023-05-23T13:01:38;102193.91;;;25.13;27.28
59789;BME280;47353;51.614;5.530;2023-05-23T13:04:04;102204.22;;;25.18;27.92